sensor_id;sensor_type;location;lat;lon;timestamp;P1;durP1;ratioP1;P2;durP2;ratioP2
3718;SDS011;1875;52.492;6.860;2024-02-28T00:00:44;96.60;;;22.27;;
3718;SDS011;1875;52.492;6.860;2024-02-28T00:03:12;62.50;;;14.95;;
3718;SDS011;1875;52.492;6.860;2024-02-28T00:05:40;92.03;;;17.80;;
3718;SDS011;1875;52.492;6.860;2024-02-28T00:08:08;80.18;;;16.33;;
3718;SDS011;1875;52.492;6.860;2024-02-28T00:10:35;59.30;;;16.38;;
3718;SDS011;1875;52.492;6.860;2024-02-28T00:13:04;65.97;;;16.52;;
3718;SDS011;1875;52.492;6.860;2024-02-28T00:15:31;68.95;;;16.63;;
3718;SDS011;1875;52.492;6.860;2024-02-28T00:18:01;133.77;;;19.15;;
3718;SDS011;1875;52.492;6.860;2024-02-28T00:20:29;53.40;;;15.65;;
3718;SDS011;1875;52.492;6.860;2024-02-28T00:22:57;46.72;;;12.65;;
3718;SDS011;1875;52.492;6.860;2024-02-28T00:25:25;100.82;;;18.73;;
3718;SDS011;1875;52.492;6.860;2024-02-28T00:27:53;86.75;;;17.33;;
3718;SDS011;1875;52.492;6.860;2024-02-28T00:30:21;94.50;;;17.95;;
3718;SDS011;1875;52.492;6.860;2024-02-28T00:32:49;73.45;;;15.60;;
3718;SDS011;1875;52.492;6.860;2024-02-28T00:35:18;209.70;;;25.50;;
3718;SDS011;1875;52.492;6.860;2024-02-28T00:37:46;247.13;;;27.52;;
3718;SDS011;1875;52.492;6.860;2024-02-28T00:40:13;97.63;;;20.00;;
3718;SDS011;1875;52.492;6.860;2024-02-28T00:42:41;148.13;;;25.13;;
3718;SDS011;1875;52.492;6.860;2024-02-28T00:45:09;288.05;;;35.47;;
3718;SDS011;1875;52.492;6.860;2024-02-28T00:47:36;60.22;;;15.32;;
3718;SDS011;1875;52.492;6.860;2024-02-28T00:50:04;66.40;;;14.43;;
3718;SDS011;1875;52.492;6.860;2024-02-28T00:52:34;81.97;;;16.30;;
3718;SDS011;1875;52.492;6.860;2024-02-28T00:55:01;57.47;;;12.02;;
3718;SDS011;1875;52.492;6.860;2024-02-28T00:57:31;58.78;;;15.73;;
3718;SDS011;1875;52.492;6.860;2024-02-28T00:59:59;96.60;;;16.85;;
3718;SDS011;1875;52.492;6.860;2024-02-28T01:02:27;69.57;;;15.38;;
3718;SDS011;1875;52.492;6.860;2024-02-28T01:04:54;121.10;;;20.85;;
3718;SDS011;1875;52.492;6.860;2024-02-28T01:07:22;79.53;;;17.15;;
3718;SDS011;1875;52.492;6.860;2024-02-28T01:09:51;117.50;;;18.95;;
3718;SDS011;1875;52.492;6.860;2024-02-28T01:12:19;79.53;;;16.83;;
3718;SDS011;1875;52.492;6.860;2024-02-28T01:14:47;58.83;;;14.15;;
3718;SDS011;1875;52.492;6.860;2024-02-28T01:17:15;76.53;;;16.45;;
3718;SDS011;1875;52.492;6.860;2024-02-28T01:19:43;71.95;;;14.63;;
3718;SDS011;1875;52.492;6.860;2024-02-28T01:22:10;46.78;;;13.25;;
3718;SDS011;1875;52.492;6.860;2024-02-28T01:24:38;90.30;;;16.77;;
3718;SDS011;1875;52.492;6.860;2024-02-28T01:27:07;85.95;;;16.23;;
3718;SDS011;1875;52.492;6.860;2024-02-28T01:29:35;55.63;;;13.55;;
3718;SDS011;1875;52.492;6.860;2024-02-28T01:32:03;81.00;;;15.30;;
3718;SDS011;1875;52.492;6.860;2024-02-28T01:34:31;75.30;;;16.00;;
3718;SDS011;1875;52.492;6.860;2024-02-28T01:36:59;70.55;;;14.23;;
3718;SDS011;1875;52.492;6.860;2024-02-28T01:39:27;55.78;;;15.80;;
3718;SDS011;1875;52.492;6.860;2024-02-28T01:41:55;56.38;;;13.90;;
3718;SDS011;1875;52.492;6.860;2024-02-28T01:44:25;74.18;;;14.93;;
3718;SDS011;1875;52.492;6.860;2024-02-28T01:46:52;104.25;;;16.13;;
3718;SDS011;1875;52.492;6.860;2024-02-28T01:49:23;105.70;;;16.75;;
3718;SDS011;1875;52.492;6.860;2024-02-28T01:51:51;79.13;;;15.00;;
3718;SDS011;1875;52.492;6.860;2024-02-28T01:54:21;85.90;;;15.20;;
3718;SDS011;1875;52.492;6.860;2024-02-28T01:56:48;95.93;;;16.00;;
3718;SDS011;1875;52.492;6.860;2024-02-28T01:59:16;80.53;;;16.42;;
3718;SDS011;1875;52.492;6.860;2024-02-28T02:01:46;65.97;;;15.77;;
3718;SDS011;1875;52.492;6.860;2024-02-28T02:04:14;60.45;;;15.63;;
3718;SDS011;1875;52.492;6.860;2024-02-28T02:06:42;92.75;;;21.00;;
3718;SDS011;1875;52.492;6.860;2024-02-28T02:09:11;52.63;;;16.20;;
3718;SDS011;1875;52.492;6.860;2024-02-28T02:11:39;58.92;;;16.25;;
3718;SDS011;1875;52.492;6.860;2024-02-28T02:14:07;49.17;;;14.13;;
3718;SDS011;1875;52.492;6.860;2024-02-28T02:16:35;73.30;;;15.25;;
3718;SDS011;1875;52.492;6.860;2024-02-28T02:19:04;52.03;;;12.98;;
3718;SDS011;1875;52.492;6.860;2024-02-28T02:21:34;76.40;;;16.38;;
3718;SDS011;1875;52.492;6.860;2024-02-28T02:24:06;68.28;;;16.00;;
3718;SDS011;1875;52.492;6.860;2024-02-28T02:26:34;76.18;;;18.10;;
3718;SDS011;1875;52.492;6.860;2024-02-28T02:29:02;91.55;;;16.58;;
3718;SDS011;1875;52.492;6.860;2024-02-28T02:31:30;72.10;;;16.25;;
3718;SDS011;1875;52.492;6.860;2024-02-28T02:33:58;51.35;;;14.80;;
3718;SDS011;1875;52.492;6.860;2024-02-28T02:36:26;74.65;;;16.80;;
3718;SDS011;1875;52.492;6.860;2024-02-28T02:38:53;66.50;;;15.48;;
3718;SDS011;1875;52.492;6.860;2024-02-28T02:41:23;57.13;;;15.18;;
3718;SDS011;1875;52.492;6.860;2024-02-28T02:43:50;59.50;;;15.50;;
3718;SDS011;1875;52.492;6.860;2024-02-28T02:46:19;56.25;;;14.70;;
3718;SDS011;1875;52.492;6.860;2024-02-28T02:48:46;54.80;;;14.25;;
3718;SDS011;1875;52.492;6.860;2024-02-28T02:51:14;113.70;;;17.92;;
3718;SDS011;1875;52.492;6.860;2024-02-28T02:53:43;67.57;;;15.27;;
3718;SDS011;1875;52.492;6.860;2024-02-28T02:56:11;76.00;;;17.45;;
3718;SDS011;1875;52.492;6.860;2024-02-28T02:58:40;66.80;;;14.65;;
3718;SDS011;1875;52.492;6.860;2024-02-28T03:01:08;82.95;;;18.92;;
3718;SDS011;1875;52.492;6.860;2024-02-28T03:03:36;58.10;;;13.98;;
3718;SDS011;1875;52.492;6.860;2024-02-28T03:06:04;56.95;;;14.27;;
3718;SDS011;1875;52.492;6.860;2024-02-28T03:08:32;65.88;;;15.57;;
3718;SDS011;1875;52.492;6.860;2024-02-28T03:11:00;69.05;;;16.33;;
3718;SDS011;1875;52.492;6.860;2024-02-28T03:13:30;65.80;;;15.90;;
3718;SDS011;1875;52.492;6.860;2024-02-28T03:15:59;60.00;;;16.55;;
3718;SDS011;1875;52.492;6.860;2024-02-28T03:18:27;47.83;;;14.50;;
3718;SDS011;1875;52.492;6.860;2024-02-28T03:20:55;55.70;;;16.13;;
3718;SDS011;1875;52.492;6.860;2024-02-28T03:23:23;83.85;;;18.38;;
3718;SDS011;1875;52.492;6.860;2024-02-28T03:25:51;60.95;;;14.95;;
3718;SDS011;1875;52.492;6.860;2024-02-28T03:28:19;62.45;;;16.95;;
3718;SDS011;1875;52.492;6.860;2024-02-28T03:30:47;73.47;;;19.23;;
3718;SDS011;1875;52.492;6.860;2024-02-28T03:33:17;66.50;;;16.63;;
3718;SDS011;1875;52.492;6.860;2024-02-28T03:35:46;52.55;;;14.52;;
3718;SDS011;1875;52.492;6.860;2024-02-28T03:38:14;51.70;;;14.63;;
3718;SDS011;1875;52.492;6.860;2024-02-28T03:40:41;69.03;;;16.17;;
3718;SDS011;1875;52.492;6.860;2024-02-28T03:43:09;81.32;;;17.60;;
3718;SDS011;1875;52.492;6.860;2024-02-28T03:45:39;40.92;;;12.70;;
3718;SDS011;1875;52.492;6.860;2024-02-28T03:48:07;74.50;;;16.00;;
3718;SDS011;1875;52.492;6.860;2024-02-28T03:50:36;45.88;;;15.43;;
3718;SDS011;1875;52.492;6.860;2024-02-28T03:53:04;44.33;;;12.98;;
3718;SDS011;1875;52.492;6.860;2024-02-28T03:55:32;62.92;;;15.75;;
3718;SDS011;1875;52.492;6.860;2024-02-28T03:58:00;46.45;;;14.32;;
3718;SDS011;1875;52.492;6.860;2024-02-28T04:00:27;84.72;;;21.58;;
3718;SDS011;1875;52.492;6.860;2024-02-28T04:02:55;58.35;;;15.20;;
3718;SDS011;1875;52.492;6.860;2024-02-28T04:05:23;53.97;;;13.32;;
3718;SDS011;1875;52.492;6.860;2024-02-28T04:07:52;70.82;;;18.42;;
3718;SDS011;1875;52.492;6.860;2024-02-28T04:10:19;61.05;;;16.50;;
3718;SDS011;1875;52.492;6.860;2024-02-28T04:12:47;46.45;;;15.00;;
3718;SDS011;1875;52.492;6.860;2024-02-28T04:15:15;68.07;;;19.20;;
3718;SDS011;1875;52.492;6.860;2024-02-28T04:17:43;67.18;;;18.42;;
3718;SDS011;1875;52.492;6.860;2024-02-28T04:20:11;43.65;;;13.25;;
3718;SDS011;1875;52.492;6.860;2024-02-28T04:22:39;50.28;;;15.15;;
3718;SDS011;1875;52.492;6.860;2024-02-28T04:25:09;70.63;;;17.17;;
3718;SDS011;1875;52.492;6.860;2024-02-28T04:27:37;79.35;;;18.50;;
3718;SDS011;1875;52.492;6.860;2024-02-28T04:30:05;62.25;;;17.80;;
3718;SDS011;1875;52.492;6.860;2024-02-28T04:32:33;54.47;;;16.58;;
3718;SDS011;1875;52.492;6.860;2024-02-28T04:35:02;68.07;;;16.27;;
3718;SDS011;1875;52.492;6.860;2024-02-28T04:37:30;33.72;;;13.13;;
3718;SDS011;1875;52.492;6.860;2024-02-28T04:39:58;47.53;;;12.40;;
3718;SDS011;1875;52.492;6.860;2024-02-28T04:42:27;62.00;;;14.25;;
3718;SDS011;1875;52.492;6.860;2024-02-28T04:44:55;61.85;;;16.42;;
3718;SDS011;1875;52.492;6.860;2024-02-28T04:47:23;56.25;;;14.63;;
3718;SDS011;1875;52.492;6.860;2024-02-28T04:50:01;52.95;;;14.68;;
3718;SDS011;1875;52.492;6.860;2024-02-28T04:52:31;59.22;;;15.13;;
3718;SDS011;1875;52.492;6.860;2024-02-28T04:54:59;41.95;;;13.75;;
3718;SDS011;1875;52.492;6.860;2024-02-28T04:57:28;63.53;;;16.40;;
3718;SDS011;1875;52.492;6.860;2024-02-28T04:59:56;44.03;;;13.13;;
3718;SDS011;1875;52.492;6.860;2024-02-28T05:02:24;44.40;;;15.93;;
3718;SDS011;1875;52.492;6.860;2024-02-28T05:04:52;59.72;;;15.00;;
3718;SDS011;1875;52.492;6.860;2024-02-28T05:07:20;45.55;;;12.88;;
3718;SDS011;1875;52.492;6.860;2024-02-28T05:09:48;54.03;;;16.20;;
3718;SDS011;1875;52.492;6.860;2024-02-28T05:12:16;61.25;;;16.50;;
3718;SDS011;1875;52.492;6.860;2024-02-28T05:14:46;68.72;;;18.05;;
3718;SDS011;1875;52.492;6.860;2024-02-28T05:17:16;36.78;;;13.23;;
3718;SDS011;1875;52.492;6.860;2024-02-28T05:19:44;46.88;;;13.77;;
3718;SDS011;1875;52.492;6.860;2024-02-28T05:22:12;74.72;;;18.10;;
3718;SDS011;1875;52.492;6.860;2024-02-28T05:24:40;65.05;;;16.85;;
3718;SDS011;1875;52.492;6.860;2024-02-28T05:27:10;65.93;;;15.68;;
3718;SDS011;1875;52.492;6.860;2024-02-28T05:29:37;61.17;;;17.83;;
3718;SDS011;1875;52.492;6.860;2024-02-28T05:32:08;32.63;;;11.35;;
3718;SDS011;1875;52.492;6.860;2024-02-28T05:34:36;65.80;;;19.23;;
3718;SDS011;1875;52.492;6.860;2024-02-28T05:37:04;58.92;;;15.65;;
3718;SDS011;1875;52.492;6.860;2024-02-28T05:39:32;62.20;;;16.75;;
3718;SDS011;1875;52.492;6.860;2024-02-28T05:42:00;76.68;;;18.70;;
3718;SDS011;1875;52.492;6.860;2024-02-28T05:44:27;53.13;;;16.08;;
3718;SDS011;1875;52.492;6.860;2024-02-28T05:46:56;68.20;;;18.20;;
3718;SDS011;1875;52.492;6.860;2024-02-28T05:49:25;57.70;;;17.50;;
3718;SDS011;1875;52.492;6.860;2024-02-28T05:51:53;55.47;;;15.57;;
3718;SDS011;1875;52.492;6.860;2024-02-28T05:54:21;55.88;;;15.75;;
3718;SDS011;1875;52.492;6.860;2024-02-28T05:56:49;56.63;;;16.92;;
3718;SDS011;1875;52.492;6.860;2024-02-28T05:59:16;45.22;;;15.25;;
3718;SDS011;1875;52.492;6.860;2024-02-28T06:01:44;58.33;;;17.10;;
3718;SDS011;1875;52.492;6.860;2024-02-28T06:04:12;44.20;;;13.52;;
3718;SDS011;1875;52.492;6.860;2024-02-28T06:06:41;58.33;;;17.83;;
3718;SDS011;1875;52.492;6.860;2024-02-28T06:09:09;92.15;;;18.50;;
3718;SDS011;1875;52.492;6.860;2024-02-28T06:11:38;47.05;;;14.90;;
3718;SDS011;1875;52.492;6.860;2024-02-28T06:14:05;45.08;;;14.02;;
3718;SDS011;1875;52.492;6.860;2024-02-28T06:16:33;61.13;;;17.45;;
3718;SDS011;1875;52.492;6.860;2024-02-28T06:19:01;48.90;;;15.73;;
3718;SDS011;1875;52.492;6.860;2024-02-28T06:21:31;55.25;;;15.32;;
3718;SDS011;1875;52.492;6.860;2024-02-28T06:24:01;52.33;;;15.15;;
3718;SDS011;1875;52.492;6.860;2024-02-28T06:26:30;62.40;;;16.95;;
3718;SDS011;1875;52.492;6.860;2024-02-28T06:28:58;49.35;;;17.05;;
3718;SDS011;1875;52.492;6.860;2024-02-28T06:31:28;63.28;;;19.33;;
3718;SDS011;1875;52.492;6.860;2024-02-28T06:33:57;61.38;;;16.60;;
3718;SDS011;1875;52.492;6.860;2024-02-28T06:36:25;46.33;;;16.10;;
3718;SDS011;1875;52.492;6.860;2024-02-28T06:38:53;55.22;;;16.95;;
3718;SDS011;1875;52.492;6.860;2024-02-28T06:41:22;52.67;;;14.23;;
3718;SDS011;1875;52.492;6.860;2024-02-28T06:43:50;48.67;;;16.17;;
3718;SDS011;1875;52.492;6.860;2024-02-28T06:46:18;63.75;;;19.05;;
3718;SDS011;1875;52.492;6.860;2024-02-28T06:48:46;56.60;;;18.45;;
3718;SDS011;1875;52.492;6.860;2024-02-28T06:51:13;47.08;;;14.25;;
3718;SDS011;1875;52.492;6.860;2024-02-28T06:53:43;69.65;;;16.88;;
3718;SDS011;1875;52.492;6.860;2024-02-28T06:56:11;53.60;;;15.77;;
3718;SDS011;1875;52.492;6.860;2024-02-28T06:58:41;51.28;;;15.50;;
3718;SDS011;1875;52.492;6.860;2024-02-28T07:01:08;50.00;;;14.68;;
3718;SDS011;1875;52.492;6.860;2024-02-28T07:03:36;67.57;;;17.45;;
3718;SDS011;1875;52.492;6.860;2024-02-28T07:06:04;62.67;;;17.27;;
3718;SDS011;1875;52.492;6.860;2024-02-28T07:08:32;54.35;;;15.98;;
3718;SDS011;1875;52.492;6.860;2024-02-28T07:11:00;61.85;;;18.65;;
3718;SDS011;1875;52.492;6.860;2024-02-28T07:13:29;62.08;;;17.65;;
3718;SDS011;1875;52.492;6.860;2024-02-28T07:15:58;60.35;;;17.65;;
3718;SDS011;1875;52.492;6.860;2024-02-28T07:18:26;56.28;;;19.55;;
3718;SDS011;1875;52.492;6.860;2024-02-28T07:20:55;55.80;;;18.75;;
3718;SDS011;1875;52.492;6.860;2024-02-28T07:23:23;59.42;;;17.33;;
3718;SDS011;1875;52.492;6.860;2024-02-28T07:25:51;42.03;;;15.32;;
3718;SDS011;1875;52.492;6.860;2024-02-28T07:28:18;47.58;;;16.48;;
3718;SDS011;1875;52.492;6.860;2024-02-28T07:30:46;55.65;;;18.52;;
3718;SDS011;1875;52.492;6.860;2024-02-28T07:33:16;45.90;;;16.48;;
3718;SDS011;1875;52.492;6.860;2024-02-28T07:35:44;47.72;;;17.23;;
3718;SDS011;1875;52.492;6.860;2024-02-28T07:38:12;50.45;;;16.35;;
3718;SDS011;1875;52.492;6.860;2024-02-28T07:40:40;55.55;;;19.13;;
3718;SDS011;1875;52.492;6.860;2024-02-28T07:43:09;54.10;;;15.43;;
3718;SDS011;1875;52.492;6.860;2024-02-28T07:45:36;57.88;;;18.48;;
3718;SDS011;1875;52.492;6.860;2024-02-28T07:48:04;58.65;;;18.48;;
3718;SDS011;1875;52.492;6.860;2024-02-28T07:50:34;53.90;;;17.77;;
3718;SDS011;1875;52.492;6.860;2024-02-28T07:53:03;60.20;;;18.15;;
3718;SDS011;1875;52.492;6.860;2024-02-28T07:55:31;63.22;;;19.25;;
3718;SDS011;1875;52.492;6.860;2024-02-28T07:57:59;57.85;;;20.83;;
3718;SDS011;1875;52.492;6.860;2024-02-28T08:00:27;61.63;;;21.50;;
3718;SDS011;1875;52.492;6.860;2024-02-28T08:02:57;49.80;;;17.83;;
3718;SDS011;1875;52.492;6.860;2024-02-28T08:05:24;53.10;;;18.17;;
3718;SDS011;1875;52.492;6.860;2024-02-28T08:07:53;63.63;;;19.25;;
3718;SDS011;1875;52.492;6.860;2024-02-28T08:10:21;66.93;;;21.13;;
3718;SDS011;1875;52.492;6.860;2024-02-28T08:12:50;68.10;;;23.33;;
3718;SDS011;1875;52.492;6.860;2024-02-28T08:15:17;77.03;;;22.05;;
3718;SDS011;1875;52.492;6.860;2024-02-28T08:17:45;64.80;;;21.77;;
3718;SDS011;1875;52.492;6.860;2024-02-28T08:20:13;74.55;;;22.30;;
3718;SDS011;1875;52.492;6.860;2024-02-28T08:22:41;65.45;;;23.15;;
3718;SDS011;1875;52.492;6.860;2024-02-28T08:25:10;61.08;;;23.13;;
3718;SDS011;1875;52.492;6.860;2024-02-28T08:27:38;60.13;;;22.48;;
3718;SDS011;1875;52.492;6.860;2024-02-28T08:30:06;70.70;;;23.25;;
3718;SDS011;1875;52.492;6.860;2024-02-28T08:32:34;71.72;;;25.75;;
3718;SDS011;1875;52.492;6.860;2024-02-28T08:35:03;71.70;;;23.80;;
3718;SDS011;1875;52.492;6.860;2024-02-28T08:37:31;71.70;;;25.77;;
3718;SDS011;1875;52.492;6.860;2024-02-28T08:39:58;70.15;;;22.30;;
3718;SDS011;1875;52.492;6.860;2024-02-28T08:42:28;68.57;;;24.17;;
3718;SDS011;1875;52.492;6.860;2024-02-28T08:44:56;70.07;;;23.38;;
3718;SDS011;1875;52.492;6.860;2024-02-28T08:47:24;81.40;;;26.27;;
3718;SDS011;1875;52.492;6.860;2024-02-28T08:49:53;71.82;;;23.17;;
3718;SDS011;1875;52.492;6.860;2024-02-28T08:52:21;61.97;;;23.13;;
3718;SDS011;1875;52.492;6.860;2024-02-28T08:54:49;61.72;;;23.98;;
3718;SDS011;1875;52.492;6.860;2024-02-28T08:57:17;65.60;;;22.25;;
3718;SDS011;1875;52.492;6.860;2024-02-28T08:59:48;59.03;;;21.25;;
3718;SDS011;1875;52.492;6.860;2024-02-28T09:02:19;61.15;;;21.75;;
3718;SDS011;1875;52.492;6.860;2024-02-28T09:04:47;58.67;;;21.70;;
3718;SDS011;1875;52.492;6.860;2024-02-28T09:07:18;53.75;;;20.92;;
3718;SDS011;1875;52.492;6.860;2024-02-28T09:09:46;59.90;;;23.88;;
3718;SDS011;1875;52.492;6.860;2024-02-28T09:12:14;52.95;;;20.83;;
3718;SDS011;1875;52.492;6.860;2024-02-28T09:14:42;58.22;;;23.08;;
3718;SDS011;1875;52.492;6.860;2024-02-28T09:17:12;58.95;;;23.25;;
3718;SDS011;1875;52.492;6.860;2024-02-28T09:19:40;69.53;;;22.83;;
3718;SDS011;1875;52.492;6.860;2024-02-28T09:22:08;46.78;;;20.08;;
3718;SDS011;1875;52.492;6.860;2024-02-28T09:24:36;58.55;;;22.38;;
3718;SDS011;1875;52.492;6.860;2024-02-28T09:27:04;51.63;;;21.33;;
3718;SDS011;1875;52.492;6.860;2024-02-28T09:29:32;56.38;;;23.00;;
3718;SDS011;1875;52.492;6.860;2024-02-28T09:31:59;65.45;;;23.75;;
3718;SDS011;1875;52.492;6.860;2024-02-28T09:34:29;54.88;;;21.98;;
3718;SDS011;1875;52.492;6.860;2024-02-28T09:36:57;61.63;;;23.38;;
3718;SDS011;1875;52.492;6.860;2024-02-28T09:39:25;65.22;;;23.05;;
3718;SDS011;1875;52.492;6.860;2024-02-28T09:41:53;66.03;;;25.70;;
3718;SDS011;1875;52.492;6.860;2024-02-28T09:44:21;56.53;;;23.30;;
3718;SDS011;1875;52.492;6.860;2024-02-28T09:46:49;63.08;;;25.25;;
3718;SDS011;1875;52.492;6.860;2024-02-28T09:49:18;63.97;;;25.17;;
3718;SDS011;1875;52.492;6.860;2024-02-28T09:51:48;71.65;;;29.38;;
3718;SDS011;1875;52.492;6.860;2024-02-28T09:54:16;70.28;;;28.55;;
3718;SDS011;1875;52.492;6.860;2024-02-28T09:56:44;54.35;;;23.63;;
3718;SDS011;1875;52.492;6.860;2024-02-28T09:59:14;60.75;;;24.63;;
3718;SDS011;1875;52.492;6.860;2024-02-28T10:01:43;62.05;;;24.48;;
3718;SDS011;1875;52.492;6.860;2024-02-28T10:04:13;54.78;;;22.30;;
3718;SDS011;1875;52.492;6.860;2024-02-28T10:06:41;64.65;;;25.40;;
3718;SDS011;1875;52.492;6.860;2024-02-28T10:09:10;62.78;;;25.88;;
3718;SDS011;1875;52.492;6.860;2024-02-28T10:11:38;60.33;;;24.52;;
3718;SDS011;1875;52.492;6.860;2024-02-28T10:14:16;56.03;;;24.67;;
3718;SDS011;1875;52.492;6.860;2024-02-28T10:16:44;61.47;;;26.58;;
3718;SDS011;1875;52.492;6.860;2024-02-28T10:19:12;58.00;;;25.75;;
3718;SDS011;1875;52.492;6.860;2024-02-28T10:21:40;55.35;;;24.45;;
3718;SDS011;1875;52.492;6.860;2024-02-28T10:24:12;55.92;;;24.23;;
3718;SDS011;1875;52.492;6.860;2024-02-28T10:26:43;63.78;;;26.38;;
3718;SDS011;1875;52.492;6.860;2024-02-28T10:29:12;63.70;;;28.50;;
3718;SDS011;1875;52.492;6.860;2024-02-28T10:31:41;64.32;;;28.38;;
3718;SDS011;1875;52.492;6.860;2024-02-28T10:34:08;52.28;;;26.23;;
3718;SDS011;1875;52.492;6.860;2024-02-28T10:36:37;54.83;;;26.17;;
3718;SDS011;1875;52.492;6.860;2024-02-28T10:39:05;58.95;;;25.80;;
3718;SDS011;1875;52.492;6.860;2024-02-28T10:41:34;59.47;;;23.45;;
3718;SDS011;1875;52.492;6.860;2024-02-28T10:46:31;55.22;;;24.30;;
3718;SDS011;1875;52.492;6.860;2024-02-28T10:49:02;58.38;;;24.40;;
3718;SDS011;1875;52.492;6.860;2024-02-28T10:51:32;62.83;;;25.90;;
3718;SDS011;1875;52.492;6.860;2024-02-28T10:54:08;51.03;;;24.75;;
3718;SDS011;1875;52.492;6.860;2024-02-28T10:56:39;64.32;;;26.38;;
3718;SDS011;1875;52.492;6.860;2024-02-28T10:59:08;58.60;;;27.15;;
3718;SDS011;1875;52.492;6.860;2024-02-28T11:01:38;65.40;;;27.95;;
3718;SDS011;1875;52.492;6.860;2024-02-28T11:04:09;54.75;;;23.15;;
3718;SDS011;1875;52.492;6.860;2024-02-28T11:06:47;60.50;;;25.77;;
3718;SDS011;1875;52.492;6.860;2024-02-28T11:09:20;60.63;;;24.38;;
3718;SDS011;1875;52.492;6.860;2024-02-28T11:11:51;56.50;;;25.50;;
3718;SDS011;1875;52.492;6.860;2024-02-28T11:14:20;53.28;;;26.38;;
3718;SDS011;1875;52.492;6.860;2024-02-28T11:16:59;57.78;;;24.55;;
3718;SDS011;1875;52.492;6.860;2024-02-28T11:19:28;49.85;;;21.58;;
3718;SDS011;1875;52.492;6.860;2024-02-28T11:21:56;46.83;;;21.73;;
3718;SDS011;1875;52.492;6.860;2024-02-28T11:24:24;57.25;;;25.55;;
3718;SDS011;1875;52.492;6.860;2024-02-28T11:26:54;51.03;;;24.42;;
3718;SDS011;1875;52.492;6.860;2024-02-28T11:29:22;49.20;;;23.17;;
3718;SDS011;1875;52.492;6.860;2024-02-28T11:31:51;53.80;;;26.63;;
3718;SDS011;1875;52.492;6.860;2024-02-28T11:34:19;51.20;;;24.83;;
3718;SDS011;1875;52.492;6.860;2024-02-28T11:36:48;52.50;;;24.20;;
3718;SDS011;1875;52.492;6.860;2024-02-28T11:39:16;52.03;;;23.15;;
3718;SDS011;1875;52.492;6.860;2024-02-28T11:41:46;49.83;;;22.05;;
3718;SDS011;1875;52.492;6.860;2024-02-28T11:44:16;58.13;;;25.02;;
3718;SDS011;1875;52.492;6.860;2024-02-28T11:46:45;49.13;;;22.42;;
3718;SDS011;1875;52.492;6.860;2024-02-28T11:49:13;46.38;;;21.60;;
3718;SDS011;1875;52.492;6.860;2024-02-28T11:51:41;48.58;;;21.40;;
3718;SDS011;1875;52.492;6.860;2024-02-28T11:54:09;48.72;;;22.60;;
3718;SDS011;1875;52.492;6.860;2024-02-28T11:56:38;43.63;;;22.77;;
3718;SDS011;1875;52.492;6.860;2024-02-28T11:59:06;44.88;;;20.95;;
3718;SDS011;1875;52.492;6.860;2024-02-28T12:01:36;45.42;;;19.67;;
3718;SDS011;1875;52.492;6.860;2024-02-28T12:04:05;51.30;;;21.98;;
3718;SDS011;1875;52.492;6.860;2024-02-28T12:06:34;41.65;;;21.27;;
3718;SDS011;1875;52.492;6.860;2024-02-28T12:09:03;44.63;;;19.55;;
3718;SDS011;1875;52.492;6.860;2024-02-28T12:11:31;41.33;;;21.63;;
3718;SDS011;1875;52.492;6.860;2024-02-28T12:13:59;41.85;;;19.90;;
3718;SDS011;1875;52.492;6.860;2024-02-28T12:16:27;43.90;;;19.52;;
3718;SDS011;1875;52.492;6.860;2024-02-28T12:18:57;44.88;;;20.58;;
3718;SDS011;1875;52.492;6.860;2024-02-28T12:21:25;45.78;;;21.92;;
3718;SDS011;1875;52.492;6.860;2024-02-28T12:23:53;42.45;;;22.63;;
3718;SDS011;1875;52.492;6.860;2024-02-28T12:26:20;46.13;;;22.45;;
3718;SDS011;1875;52.492;6.860;2024-02-28T12:28:48;45.05;;;20.88;;
3718;SDS011;1875;52.492;6.860;2024-02-28T12:31:16;44.08;;;19.38;;
3718;SDS011;1875;52.492;6.860;2024-02-28T12:33:45;43.28;;;20.13;;
3718;SDS011;1875;52.492;6.860;2024-02-28T12:36:14;42.25;;;21.40;;
3718;SDS011;1875;52.492;6.860;2024-02-28T12:38:42;41.97;;;19.42;;
3718;SDS011;1875;52.492;6.860;2024-02-28T12:41:10;39.35;;;19.25;;
3718;SDS011;1875;52.492;6.860;2024-02-28T12:43:38;41.42;;;17.95;;
3718;SDS011;1875;52.492;6.860;2024-02-28T12:46:06;41.45;;;19.33;;
3718;SDS011;1875;52.492;6.860;2024-02-28T12:48:36;40.03;;;19.23;;
3718;SDS011;1875;52.492;6.860;2024-02-28T12:51:04;41.50;;;18.70;;
3718;SDS011;1875;52.492;6.860;2024-02-28T12:53:33;41.08;;;18.25;;
3718;SDS011;1875;52.492;6.860;2024-02-28T12:56:01;42.22;;;18.42;;
3718;SDS011;1875;52.492;6.860;2024-02-28T12:58:29;35.50;;;16.88;;
3718;SDS011;1875;52.492;6.860;2024-02-28T13:00:57;33.67;;;17.77;;
3718;SDS011;1875;52.492;6.860;2024-02-28T13:03:25;39.00;;;15.55;;
3718;SDS011;1875;52.492;6.860;2024-02-28T13:05:53;41.25;;;18.38;;
3718;SDS011;1875;52.492;6.860;2024-02-28T13:08:20;62.30;;;19.90;;
3718;SDS011;1875;52.492;6.860;2024-02-28T13:10:50;35.25;;;16.30;;
3718;SDS011;1875;52.492;6.860;2024-02-28T13:13:21;30.95;;;16.30;;
3718;SDS011;1875;52.492;6.860;2024-02-28T13:15:49;31.60;;;15.85;;
3718;SDS011;1875;52.492;6.860;2024-02-28T13:18:16;39.20;;;18.17;;
3718;SDS011;1875;52.492;6.860;2024-02-28T13:20:45;37.83;;;16.80;;
3718;SDS011;1875;52.492;6.860;2024-02-28T13:23:13;47.22;;;19.52;;
3718;SDS011;1875;52.492;6.860;2024-02-28T13:25:41;39.85;;;18.30;;
3718;SDS011;1875;52.492;6.860;2024-02-28T13:28:10;37.10;;;16.70;;
3718;SDS011;1875;52.492;6.860;2024-02-28T13:30:37;36.10;;;16.08;;
3718;SDS011;1875;52.492;6.860;2024-02-28T13:33:05;37.55;;;17.83;;
3718;SDS011;1875;52.492;6.860;2024-02-28T13:35:34;37.90;;;17.45;;
3718;SDS011;1875;52.492;6.860;2024-02-28T13:38:04;42.83;;;19.23;;
3718;SDS011;1875;52.492;6.860;2024-02-28T13:40:32;39.28;;;18.48;;
3718;SDS011;1875;52.492;6.860;2024-02-28T13:42:59;38.55;;;17.67;;
3718;SDS011;1875;52.492;6.860;2024-02-28T13:45:30;39.45;;;17.17;;
3718;SDS011;1875;52.492;6.860;2024-02-28T13:47:58;39.22;;;16.33;;
3718;SDS011;1875;52.492;6.860;2024-02-28T13:50:25;39.58;;;18.10;;
3718;SDS011;1875;52.492;6.860;2024-02-28T13:52:58;37.63;;;17.70;;
3718;SDS011;1875;52.492;6.860;2024-02-28T13:55:26;38.80;;;17.67;;
3718;SDS011;1875;52.492;6.860;2024-02-28T13:57:53;38.17;;;15.88;;
3718;SDS011;1875;52.492;6.860;2024-02-28T14:00:21;43.58;;;18.92;;
3718;SDS011;1875;52.492;6.860;2024-02-28T14:02:51;40.47;;;18.90;;
3718;SDS011;1875;52.492;6.860;2024-02-28T14:05:19;42.92;;;16.90;;
3718;SDS011;1875;52.492;6.860;2024-02-28T14:07:47;35.55;;;15.68;;
3718;SDS011;1875;52.492;6.860;2024-02-28T14:10:14;41.25;;;17.90;;
3718;SDS011;1875;52.492;6.860;2024-02-28T14:12:43;41.05;;;17.13;;
3718;SDS011;1875;52.492;6.860;2024-02-28T14:15:11;44.95;;;19.02;;
3718;SDS011;1875;52.492;6.860;2024-02-28T14:17:39;42.33;;;17.08;;
3718;SDS011;1875;52.492;6.860;2024-02-28T14:20:09;42.38;;;18.30;;
3718;SDS011;1875;52.492;6.860;2024-02-28T14:22:37;52.13;;;18.98;;
3718;SDS011;1875;52.492;6.860;2024-02-28T14:25:09;43.47;;;15.63;;
3718;SDS011;1875;52.492;6.860;2024-02-28T14:27:38;43.88;;;18.42;;
3718;SDS011;1875;52.492;6.860;2024-02-28T14:30:07;42.00;;;18.58;;
3718;SDS011;1875;52.492;6.860;2024-02-28T14:32:35;41.25;;;19.38;;
3718;SDS011;1875;52.492;6.860;2024-02-28T14:35:04;42.00;;;18.80;;
3718;SDS011;1875;52.492;6.860;2024-02-28T14:37:34;49.97;;;20.48;;
3718;SDS011;1875;52.492;6.860;2024-02-28T14:40:03;46.33;;;18.52;;
3718;SDS011;1875;52.492;6.860;2024-02-28T14:42:36;39.50;;;17.27;;
3718;SDS011;1875;52.492;6.860;2024-02-28T14:45:05;48.88;;;16.88;;
3718;SDS011;1875;52.492;6.860;2024-02-28T14:47:33;42.15;;;16.75;;
3718;SDS011;1875;52.492;6.860;2024-02-28T14:50:02;51.15;;;20.25;;
3718;SDS011;1875;52.492;6.860;2024-02-28T14:52:30;47.20;;;18.52;;
3718;SDS011;1875;52.492;6.860;2024-02-28T14:54:59;44.03;;;18.83;;
3718;SDS011;1875;52.492;6.860;2024-02-28T14:57:28;38.53;;;16.08;;